Time;durP1;ratioP1;P1;durP2;ratioP2;P2;SDS_P1;SDS_P2;PMS_P1;PMS_P2;Temp;Humidity;BMP_temperature;BMP_pressure;BME280_temperature;BME280_humidity;BME280_pressure;Samples;Min_cycle;Max_cycle;Signal;HPM_P1;HPM_P2
2023/06/18 00:02:25;;;;;;;13.77;5.38;;;;;;;19.84;42.42;100048.69;10302768;28;20090;-68
2023/06/18 00:07:27;;;;;;;7.35;5.32;;;;;;;19.79;42.57;100038.50;10299968;28;20074;-69
2023/06/18 00:12:28;;;;;;;8.80;5.03;;;;;;;19.74;42.83;100043.03;10302753;28;20498;-69
2023/06/18 00:17:30;;;;;;;7.07;4.60;;;;;;;19.68;42.80;100041.25;10299082;28;20062;-68
2023/06/18 00:22:37;;;;;;;8.18;5.30;;;;;;;19.58;42.94;100045.44;10301576;28;20047;-68
2023/06/18 00:27:40;;;;;;;7.90;5.03;;;;;;;19.49;43.05;100041.47;10301720;28;20521;-68
2023/06/18 00:32:43;;;;;;;7.90;5.20;;;;;;;19.40;43.22;100042.91;10301226;28;20042;-68
2023/06/18 00:37:45;;;;;;;5.70;4.57;;;;;;;19.38;43.25;100042.31;10304248;28;20494;-68
2023/06/18 00:42:48;;;;;;;5.70;4.47;;;;;;;19.33;43.34;100048.50;10306822;28;20038;-68
2023/06/18 00:47:50;;;;;;;9.88;4.70;;;;;;;19.16;43.60;100044.88;10301337;28;20037;-70
2023/06/18 00:52:59;;;;;;;4.90;3.55;;;;;;;19.13;43.80;100046.16;10303775;28;20092;-67
2023/06/18 00:58:02;;;;;;;5.88;4.35;;;;;;;19.02;44.03;100045.13;10303827;28;20046;-69
2023/06/18 01:03:06;;;;;;;6.15;3.72;;;;;;;18.98;44.44;100040.41;10298996;28;20047;-69
2023/06/18 01:08:12;;;;;;;5.57;3.72;;;;;;;18.88;44.69;100042.88;10300151;28;20066;-70
2023/06/18 01:13:14;;;;;;;6.57;3.97;;;;;;;18.73;44.78;100036.00;10297745;28;20141;-68
2023/06/18 01:18:16;;;;;;;4.35;3.15;;;;;;;18.70;44.97;100038.34;10303595;28;20058;-68
2023/06/18 01:23:27;;;;;;;6.28;3.60;;;;;;;18.67;44.83;100034.22;10303240;28;20039;-70
2023/06/18 01:28:29;;;;;;;7.43;4.18;;;;;;;18.65;44.93;100038.25;10309320;28;20532;-70
2023/06/18 01:33:34;;;;;;;4.30;3.20;;;;;;;18.57;45.37;100025.81;10305355;28;20061;-68
2023/06/18 01:38:43;;;;;;;5.25;4.00;;;;;;;18.48;45.32;100022.63;10308265;28;20332;-70
2023/06/18 01:43:57;;;;;;;6.20;3.55;;;;;;;18.39;45.62;100032.22;10307912;28;20042;-70
2023/06/18 01:49:04;;;;;;;5.80;3.55;;;;;;;18.36;45.27;100025.31;10312751;28;20049;-68
2023/06/18 01:54:07;;;;;;;10.60;3.75;;;;;;;18.32;45.50;100021.41;10304446;28;20065;-69
2023/06/18 01:59:09;;;;;;;4.93;3.22;;;;;;;18.24;45.64;100030.75;10305171;28;21215;-68
2023/06/18 02:04:10;;;;;;;8.32;3.53;;;;;;;18.16;45.98;100030.28;10303855;28;20414;-67
2023/06/18 02:09:12;;;;;;;6.82;3.38;;;;;;;18.03;45.94;100026.72;10301057;28;20068;-68
2023/06/18 02:14:13;;;;;;;6.20;4.35;;;;;;;18.02;46.19;100030.47;10310507;28;20059;-68
2023/06/18 02:19:15;;;;;;;5.43;3.60;;;;;;;17.98;46.48;100033.91;10305911;28;20490;-69
2023/06/18 02:24:16;;;;;;;9.45;3.72;;;;;;;17.94;46.59;100036.25;10309116;28;20043;-68
2023/06/18 02:29:18;;;;;;;5.78;3.25;;;;;;;17.93;46.77;100031.03;10298674;28;20121;-69
2023/06/18 02:34:19;;;;;;;9.15;3.72;;;;;;;17.92;46.78;100026.69;10304202;28;20043;-69
2023/06/18 02:39:21;;;;;;;7.60;4.75;;;;;;;17.89;46.94;100021.69;10306198;28;20046;-69
2023/06/18 02:44:24;;;;;;;7.40;4.25;;;;;;;17.83;47.06;100023.41;10302813;28;20054;-68
2023/06/18 02:49:27;;;;;;;4.78;3.60;;;;;;;17.81;47.16;100029.13;10296841;28;20038;-69
2023/06/18 02:54:28;;;;;;;7.53;4.03;;;;;;;17.67;47.71;100024.91;10301038;28;20035;-69
2023/06/18 02:59:30;;;;;;;5.57;4.03;;;;;;;17.62;47.64;100025.59;10297134;28;20434;-70
2023/06/18 03:04:31;;;;;;;5.30;3.80;;;;;;;17.57;47.66;100017.31;10303194;28;20043;-68
2023/06/18 03:09:33;;;;;;;5.38;3.58;;;;;;;17.57;47.89;100027.34;10305966;28;20042;-68
2023/06/18 03:14:34;;;;;;;6.85;4.45;;;;;;;17.56;47.76;100026.53;10306168;28;20069;-63
2023/06/18 03:19:35;;;;;;;7.00;4.60;;;;;;;17.59;48.12;100028.78;10299378;28;20054;-62
2023/06/18 03:24:38;;;;;;;8.73;4.63;;;;;;;17.60;47.96;100029.63;10307096;28;20042;-63
2023/06/18 03:29:40;;;;;;;5.40;3.58;;;;;;;17.56;48.06;100034.69;10300790;28;20057;-63
2023/06/18 03:34:42;;;;;;;6.88;4.32;;;;;;;17.57;48.22;100038.22;10302072;28;20050;-63
2023/06/18 03:39:44;;;;;;;5.63;4.00;;;;;;;17.50;48.41;100041.03;10306203;28;20046;-63
2023/06/18 03:44:45;;;;;;;6.72;4.45;;;;;;;17.48;48.61;100042.34;10300175;28;20046;-64
2023/06/18 03:49:47;;;;;;;6.10;4.57;;;;;;;17.52;48.72;100040.81;10302303;28;20051;-63
2023/06/18 03:54:48;;;;;;;8.45;5.20;;;;;;;17.55;48.98;100041.16;10301128;28;20042;-63
2023/06/18 03:59:51;;;;;;;10.57;5.95;;;;;;;17.58;48.69;100038.00;10299720;28;20494;-63
2023/06/18 04:04:53;;;;;;;7.13;4.90;;;;;;;17.64;49.11;100041.69;10302665;28;20043;-63
2023/06/18 04:09:54;;;;;;;7.20;4.40;;;;;;;17.69;48.56;100041.81;10298635;28;20058;-63
2023/06/18 04:14:55;;;;;;;7.63;4.95;;;;;;;17.74;48.92;100049.28;10300486;28;20058;-63
2023/06/18 04:19:57;;;;;;;7.85;4.60;;;;;;;17.74;48.78;100052.00;10300981;28;20054;-63
2023/06/18 04:24:58;;;;;;;5.93;4.65;;;;;;;17.82;48.64;100059.84;10296418;28;20117;-63
2023/06/18 04:30:00;;;;;;;6.22;4.60;;;;;;;17.91;48.74;100058.50;10299926;28;20050;-63
2023/06/18 04:35:01;;;;;;;5.20;4.28;;;;;;;18.00;48.82;100056.25;10299571;28;20046;-63
2023/06/18 04:40:07;;;;;;;10.25;4.50;;;;;;;18.08;48.52;100046.94;10297387;28;20377;-63
2023/06/18 04:45:09;;;;;;;6.43;4.82;;;;;;;18.12;48.57;100051.69;10299116;28;20047;-64
2023/06/18 04:50:10;;;;;;;7.20;4.55;;;;;;;18.13;48.72;100053.34;10301005;28;20141;-61
2023/06/18 04:55:12;;;;;;;9.32;5.13;;;;;;;18.09;49.06;100051.31;10307758;28;20053;-61
2023/06/18 05:00:14;;;;;;;7.20;4.82;;;;;;;18.10;49.01;100048.38;10305745;28;20520;-61
2023/06/18 05:05:15;;;;;;;8.65;5.45;;;;;;;18.22;48.91;100048.38;10310969;28;20053;-61
2023/06/18 05:10:17;;;;;;;6.28;4.63;;;;;;;18.35;48.92;100056.34;10306316;28;20055;-61
2023/06/18 05:15:19;;;;;;;7.32;5.82;;;;;;;18.49;48.72;100053.41;10309895;28;20058;-62
2023/06/18 05:20:21;;;;;;;7.97;5.25;;;;;;;18.61;48.62;100057.78;10309939;28;20049;-63
2023/06/18 05:25:22;;;;;;;9.05;5.05;;;;;;;18.79;48.55;100059.59;10307554;28;20046;-62
2023/06/18 05:30:24;;;;;;;8.82;5.18;;;;;;;18.83;48.65;100059.94;10308169;28;20058;-61
2023/06/18 05:35:26;;;;;;;8.55;5.03;;;;;;;18.98;48.57;100062.19;10302460;28;20043;-61
2023/06/18 05:40:27;;;;;;;7.85;4.90;;;;;;;19.08;48.81;100056.16;10310933;28;20045;-62
2023/06/18 05:45:29;;;;;;;7.65;5.10;;;;;;;19.26;48.75;100061.44;10306990;28;20843;-61
2023/06/18 05:50:30;;;;;;;6.32;4.25;;;;;;;19.42;48.86;100066.13;10308839;28;20105;-62
2023/06/18 05:55:32;;;;;;;7.15;4.95;;;;;;;19.60;48.83;100062.38;10309454;28;20046;-63
2023/06/18 06:00:33;;;;;;;5.50;4.45;;;;;;;19.85;49.00;100071.34;10302749;28;20058;-61
2023/06/18 06:05:35;;;;;;;6.18;4.40;;;;;;;20.15;48.96;100066.44;10308424;28;20061;-61
2023/06/18 06:10:36;;;;;;;6.90;4.55;;;;;;;20.41;48.43;100064.94;10307273;28;20068;-62
2023/06/18 06:15:38;;;;;;;5.93;4.80;;;;;;;20.59;48.39;100065.81;10304871;28;20046;-62
2023/06/18 06:20:39;;;;;;;9.10;4.85;;;;;;;20.84;48.14;100070.03;10304795;28;20068;-62
2023/06/18 06:25:41;;;;;;;6.97;4.22;;;;;;;20.96;48.08;100071.56;10304404;28;20046;-62
2023/06/18 06:30:42;;;;;;;8.27;5.28;;;;;;;21.17;47.69;100085.53;10306045;28;20058;-61
2023/06/18 06:35:44;;;;;;;8.00;4.50;;;;;;;21.45;47.39;100079.06;10309758;28;20057;-62
2023/06/18 06:40:46;;;;;;;4.93;3.75;;;;;;;21.67;46.94;100078.22;10304632;28;20120;-62
2023/06/18 06:45:47;;;;;;;6.82;4.97;;;;;;;21.87;46.58;100075.72;10303353;28;20046;-62
2023/06/18 06:50:48;;;;;;;8.18;4.55;;;;;;;22.00;46.49;100077.22;10292307;28;20104;-62
2023/06/18 06:55:50;;;;;;;7.03;4.65;;;;;;;22.22;45.98;100082.63;10299427;28;20101;-62
2023/06/18 07:00:51;;;;;;;4.60;3.75;;;;;;;22.40;45.17;100081.44;10305747;28;20416;-66
2023/06/18 07:05:53;;;;;;;5.97;4.50;;;;;;;22.52;45.05;100078.53;10303676;28;20093;-69
2023/06/18 07:10:54;;;;;;;6.25;4.38;;;;;;;22.74;44.88;100078.41;10310910;28;20053;-67
2023/06/18 07:15:56;;;;;;;4.88;3.97;;;;;;;22.86;44.56;100072.72;10305815;28;20047;-66
2023/06/18 07:20:57;;;;;;;5.90;3.78;;;;;;;23.06;44.13;100072.06;10306825;28;20501;-69
2023/06/18 07:25:59;;;;;;;6.78;4.03;;;;;;;23.24;43.61;100063.38;10302544;28;20046;-70
2023/06/18 07:31:01;;;;;;;5.80;4.45;;;;;;;23.51;43.09;100067.88;10302619;28;20050;-66
2023/06/18 07:36:02;;;;;;;5.43;4.30;;;;;;;23.69;42.77;100061.06;10303741;28;20138;-71
2023/06/18 07:41:04;;;;;;;5.05;4.40;;;;;;;23.95;42.18;100056.47;10308668;28;20034;-69
2023/06/18 07:46:05;;;;;;;4.75;3.58;;;;;;;24.17;41.79;100063.66;10305782;28;20049;-66
2023/06/18 07:51:06;;;;;;;9.13;4.93;;;;;;;24.27;41.44;100070.00;10297700;28;20489;-71
2023/06/18 07:56:08;;;;;;;5.72;4.28;;;;;;;24.54;40.88;100068.91;10299428;28;20058;-71
2023/06/18 08:01:10;;;;;;;4.30;3.90;;;;;;;24.82;40.85;100066.66;10299562;28;20077;-70
2023/06/18 08:06:11;;;;;;;8.70;4.22;;;;;;;24.93;40.80;100054.56;10306080;28;20106;-68
2023/06/18 08:11:13;;;;;;;5.18;4.60;;;;;;;25.12;40.28;100054.78;10307418;28;20047;-71
2023/06/18 08:16:16;;;;;;;5.43;4.65;;;;;;;25.28;40.55;100059.16;10302020;28;20061;-71
2023/06/18 08:21:17;;;;;;;5.15;3.92;;;;;;;25.46;39.79;100049.44;10304738;28;20054;-70
2023/06/18 08:26:21;;;;;;;4.72;4.15;;;;;;;25.77;39.27;100042.94;10300126;28;20065;-70
2023/06/18 08:31:22;;;;;;;4.50;3.95;;;;;;;26.04;39.34;100035.06;10310677;28;20315;-68
2023/06/18 08:36:23;;;;;;;4.55;4.00;;;;;;;26.26;37.73;100034.63;10315605;28;20046;-70
2023/06/18 08:41:26;;;;;;;5.85;4.55;;;;;;;26.46;37.13;100035.53;10304867;28;20042;-67
2023/06/18 08:46:30;;;;;;;5.78;3.72;;;;;;;26.63;36.72;100024.94;10306695;28;20043;-68
2023/06/18 08:51:33;;;;;;;6.50;4.38;;;;;;;26.69;35.95;100018.25;10309515;28;20582;-68
2023/06/18 08:56:41;;;;;;;6.07;3.72;;;;;;;26.83;36.18;100020.31;10306439;28;20039;-68
2023/06/18 09:01:43;;;;;;;5.47;4.15;;;;;;;27.11;35.56;100018.59;10309404;28;20042;-66
2023/06/18 09:06:45;;;;;;;5.80;4.35;;;;;;;27.29;35.30;100019.78;10310582;28;20047;-69
2023/06/18 09:11:46;;;;;;;4.82;3.95;;;;;;;27.43;34.93;100008.84;10309103;28;20042;-70
2023/06/18 09:16:48;;;;;;;4.32;3.65;;;;;;;27.56;35.30;100012.81;10307429;28;20058;-69
2023/06/18 09:21:51;;;;;;;4.63;4.13;;;;;;;27.89;34.21;100011.78;10311157;28;20093;-69
2023/06/18 09:27:01;;;;;;;6.85;4.22;;;;;;;28.21;33.02;100007.41;10310859;28;20061;-71
2023/06/18 09:32:20;;;;;;;4.93;3.75;;;;;;;28.51;33.25;100009.97;10306604;28;20074;-71
2023/06/18 09:37:22;;;;;;;5.85;3.75;;;;;;;28.68;32.36;100005.50;10308111;28;20046;-67
2023/06/18 09:42:29;;;;;;;5.30;3.72;;;;;;;28.98;32.64;99994.94;10304703;28;20134;-69
2023/06/18 09:47:32;;;;;;;5.68;4.15;;;;;;;29.13;31.84;99991.09;10305328;28;20542;-69
2023/06/18 09:52:44;;;;;;;4.45;3.35;;;;;;;29.39;30.90;99990.53;10307534;28;20089;-70
2023/06/18 09:57:49;;;;;;;4.40;3.63;;;;;;;29.37;30.71;99988.06;10306099;28;20057;-70
2023/06/18 10:02:50;;;;;;;4.90;3.47;;;;;;;29.65;30.51;99988.00;10306709;28;20684;-71
2023/06/18 10:07:52;;;;;;;4.85;3.95;;;;;;;29.96;30.44;99995.63;10300457;28;20103;-72
2023/06/18 10:12:59;;;;;;;5.05;3.38;;;;;;;30.24;30.16;99986.00;10306105;28;20478;-72
2023/06/18 10:18:02;;;;;;;4.10;3.25;;;;;;;30.55;29.37;99984.41;10288016;28;20077;-72
2023/06/18 10:23:06;;;;;;;6.18;3.75;;;;;;;30.42;28.69;99984.19;10305212;28;20050;-71
2023/06/18 10:28:07;;;;;;;6.00;3.70;;;;;;;30.58;28.42;99967.94;10306399;28;20402;-71
2023/06/18 10:33:09;;;;;;;5.15;3.53;;;;;;;30.78;28.22;99966.53;10300785;28;20494;-72
2023/06/18 10:38:11;;;;;;;4.35;3.75;;;;;;;31.07;27.10;99965.19;10307403;28;20043;-70
2023/06/18 10:43:12;;;;;;;3.75;3.15;;;;;;;31.01;26.19;99964.53;10303505;28;20046;-70
2023/06/18 10:48:16;;;;;;;9.63;4.00;;;;;;;31.37;25.84;99957.88;10305837;28;20042;-70
2023/06/18 10:53:24;;;;;;;5.63;3.75;;;;;;;31.60;25.35;99952.22;10301072;28;20080;-67
2023/06/18 10:58:33;;;;;;;5.60;3.85;;;;;;;31.81;24.54;99949.56;10301551;28;20081;-72
2023/06/18 11:03:38;;;;;;;5.72;4.03;;;;;;;31.79;25.72;99933.25;10305566;28;20050;-68
2023/06/18 11:08:39;;;;;;;4.32;3.22;;;;;;;32.14;25.00;99929.59;10302950;28;20047;-69
2023/06/18 11:13:50;;;;;;;5.30;3.50;;;;;;;32.45;24.39;99923.75;10308782;28;20042;-69
2023/06/18 11:18:55;;;;;;;6.38;4.32;;;;;;;32.58;23.27;99917.19;10308169;28;20050;-71
2023/06/18 11:23:56;;;;;;;3.58;3.28;;;;;;;32.83;23.19;99924.91;10302817;28;20513;-71
2023/06/18 11:29:00;;;;;;;3.40;3.10;;;;;;;33.17;22.72;99921.91;10297713;28;20069;-66
2023/06/18 11:34:07;;;;;;;4.43;3.80;;;;;;;33.57;21.73;99912.25;10306580;28;20497;-71
2023/06/18 11:39:08;;;;;;;3.00;2.45;;;;;;;33.67;21.76;99919.41;10305044;28;20401;-69
2023/06/18 11:44:10;;;;;;;3.08;2.78;;;;;;;33.82;20.74;99916.00;10304320;28;20043;-70
2023/06/18 11:49:15;;;;;;;3.75;2.53;;;;;;;33.67;20.13;99903.53;10303468;28;20157;-66
2023/06/18 11:54:16;;;;;;;3.05;2.60;;;;;;;34.04;20.02;99895.25;10308049;28;20060;-70
2023/06/18 11:59:18;;;;;;;5.10;2.63;;;;;;;34.04;20.03;99886.88;10301059;28;20045;-70
2023/06/18 12:04:20;;;;;;;4.75;3.30;;;;;;;34.33;20.08;99887.88;10302174;28;20043;-72
2023/06/18 12:09:22;;;;;;;3.03;2.72;;;;;;;34.55;19.77;99873.44;10302504;28;20530;-71
2023/06/18 12:14:37;;;;;;;4.05;2.75;;;;;;;34.29;20.19;99864.63;10297659;28;20054;-72
2023/06/18 12:19:43;;;;;;;3.13;2.83;;;;;;;34.74;20.02;99866.50;10305904;28;20050;-68
2023/06/18 12:24:45;;;;;;;4.38;2.80;;;;;;;34.78;19.11;99864.63;10301465;28;20046;-71
2023/06/18 12:29:47;;;;;;;2.92;2.72;;;;;;;35.03;19.29;99859.00;10302214;28;20077;-68
2023/06/18 12:34:48;;;;;;;3.22;2.92;;;;;;;34.68;18.85;99853.94;10302366;28;20108;-72
2023/06/18 12:40:18;;;;;;;3.97;2.75;;;;;;;34.48;18.75;99845.31;10304823;28;20068;-69
2023/06/18 12:45:25;;;;;;;3.80;2.97;;;;;;;34.71;19.58;99828.91;10300953;28;20046;-66
2023/06/18 12:50:34;;;;;;;4.35;2.78;;;;;;;35.49;18.87;99831.59;10300404;28;20049;-69
2023/06/18 12:55:36;;;;;;;3.70;2.90;;;;;;;36.01;19.21;99827.81;10301084;28;20050;-67
2023/06/18 13:00:37;;;;;;;3.88;3.33;;;;;;;36.51;18.05;99815.06;10303171;28;20698;-69
2023/06/18 13:05:38;;;;;;;3.90;2.75;;;;;;;36.97;18.16;99827.69;10308531;28;20490;-67
2023/06/18 13:10:40;;;;;;;4.60;2.67;;;;;;;37.54;17.34;99816.81;10299319;28;20049;-72
2023/06/18 13:15:42;;;;;;;8.15;3.08;;;;;;;37.77;16.97;99817.69;10306487;28;20042;-71
2023/06/18 13:20:45;;;;;;;4.68;2.33;;;;;;;38.12;16.76;99802.69;10312335;28;20049;-71
2023/06/18 13:25:46;;;;;;;3.33;2.75;;;;;;;38.12;16.53;99810.31;10306759;28;20054;-73
2023/06/18 13:30:48;;;;;;;3.20;2.70;;;;;;;38.33;16.35;99796.56;10307144;28;20045;-71
2023/06/18 13:35:49;;;;;;;2.80;2.60;;;;;;;38.91;16.46;99791.81;10311770;28;20046;-67
2023/06/18 13:40:51;;;;;;;3.85;2.72;;;;;;;40.24;15.51;99791.16;10307942;28;20053;-72
2023/06/18 13:45:53;;;;;;;2.80;2.60;;;;;;;42.20;13.64;99786.63;10313830;28;20447;-71
2023/06/18 13:50:55;;;;;;;4.20;3.00;;;;;;;43.57;12.70;99776.41;10313430;28;20050;-71
2023/06/18 13:55:57;;;;;;;2.90;2.40;;;;;;;44.38;12.55;99786.69;10306605;28;20042;-71
2023/06/18 14:00:58;;;;;;;4.38;2.30;;;;;;;45.00;12.12;99779.09;10307253;28;20042;-71
2023/06/18 14:06:00;;;;;;;2.58;2.38;;;;;;;44.77;11.87;99767.63;10308290;28;20513;-69
2023/06/18 14:11:01;;;;;;;2.70;2.50;;;;;;;43.70;12.55;99770.28;10300589;28;20054;-73
2023/06/18 14:16:07;;;;;;;2.65;2.45;;;;;;;42.43;12.59;99757.91;10308126;28;20493;-69
2023/06/18 14:21:13;;;;;;;3.38;2.13;;;;;;;42.03;12.80;99757.19;10314369;28;20118;-71
2023/06/18 14:26:14;;;;;;;3.78;2.40;;;;;;;41.08;13.83;99757.44;10305385;28;20042;-72
2023/06/18 14:31:16;;;;;;;3.25;2.47;;;;;;;41.45;12.96;99755.50;10307269;28;20066;-70
2023/06/18 14:36:17;;;;;;;5.03;2.63;;;;;;;41.82;13.48;99757.97;10298079;28;20042;-71
2023/06/18 14:41:19;;;;;;;3.78;2.03;;;;;;;41.56;13.18;99745.84;10308688;28;20068;-66
2023/06/18 14:46:20;;;;;;;2.40;2.00;;;;;;;40.78;13.47;99740.78;10302263;28;20038;-65
2023/06/18 14:51:22;;;;;;;2.63;1.83;;;;;;;40.25;13.58;99747.72;10286257;28;20058;-65
2023/06/18 14:56:27;;;;;;;2.13;1.92;;;;;;;40.01;13.88;99744.34;10304917;28;20045;-64
2023/06/18 15:01:28;;;;;;;1.92;1.67;;;;;;;39.96;15.13;99730.63;10306015;28;20042;-65
2023/06/18 15:06:31;;;;;;;2.33;2.10;;;;;;;39.69;14.65;99723.56;10290243;28;20046;-67
2023/06/18 15:11:33;;;;;;;2.70;2.10;;;;;;;39.52;14.72;99723.03;10301405;28;20129;-64
2023/06/18 15:16:34;;;;;;;3.30;1.75;;;;;;;39.16;14.64;99717.03;10307909;28;20042;-64
2023/06/18 15:21:36;;;;;;;4.50;2.08;;;;;;;38.74;16.15;99718.09;10308124;28;20049;-63
2023/06/18 15:26:37;;;;;;;2.25;2.08;;;;;;;38.23;16.58;99719.44;10303320;28;20042;-64
2023/06/18 15:31:39;;;;;;;4.43;2.30;;;;;;;37.88;16.22;99709.25;10304198;28;20046;-66
2023/06/18 15:36:40;;;;;;;1.95;1.80;;;;;;;37.61;16.29;99714.00;10303243;28;20093;-64
2023/06/18 15:41:41;;;;;;;7.97;2.92;;;;;;;37.45;17.40;99705.69;10303841;28;20046;-64
2023/06/18 15:46:44;;;;;;;3.13;2.65;;;;;;;37.49;17.24;99709.38;10306467;28;20047;-64
2023/06/18 15:51:45;;;;;;;4.15;2.10;;;;;;;38.17;16.38;99703.28;10301261;28;20105;-65
2023/06/18 15:56:47;;;;;;;5.22;2.50;;;;;;;38.81;16.66;99700.53;10291071;28;20046;-62
2023/06/18 16:01:48;;;;;;;2.80;2.60;;;;;;;39.13;15.98;99695.28;10301301;28;20047;-63
2023/06/18 16:06:50;;;;;;;2.85;2.55;;;;;;;39.07;16.29;99683.56;10302988;28;20514;-62
2023/06/18 16:11:52;;;;;;;3.85;2.63;;;;;;;39.33;15.90;99683.81;10291456;28;20038;-63
2023/06/18 16:16:53;;;;;;;2.92;2.25;;;;;;;39.92;15.67;99672.69;10306378;28;20061;-63
2023/06/18 16:21:55;;;;;;;4.47;3.40;;;;;;;40.40;15.26;99679.00;10300983;28;20505;-65
2023/06/18 16:26:59;;;;;;;6.80;2.47;;;;;;;40.94;14.88;99672.78;10300671;28;20530;-65
2023/06/18 16:32:01;;;;;;;2.95;2.75;;;;;;;41.21;14.64;99678.91;10300243;28;20533;-66
2023/06/18 16:37:03;;;;;;;2.83;2.30;;;;;;;41.59;14.28;99682.97;10302180;28;20038;-66
2023/06/18 16:42:04;;;;;;;3.13;2.08;;;;;;;41.83;14.55;99674.91;10303844;28;20054;-63
2023/06/18 16:47:06;;;;;;;2.63;2.40;;;;;;;41.79;14.18;99685.41;10308540;28;20042;-66
2023/06/18 16:52:07;;;;;;;2.60;2.20;;;;;;;42.15;13.95;99676.88;10308249;28;20058;-63
2023/06/18 16:57:09;;;;;;;3.10;2.80;;;;;;;41.68;13.79;99685.38;10312181;28;20062;-64
2023/06/18 17:02:10;;;;;;;3.75;2.70;;;;;;;40.61;14.21;99689.56;10313555;28;20105;-65
2023/06/18 17:07:12;;;;;;;4.00;3.10;;;;;;;39.85;14.75;99684.66;10314440;28;20043;-70
2023/06/18 17:12:13;;;;;;;3.35;3.05;;;;;;;39.81;14.87;99679.03;10306700;28;20043;-70
2023/06/18 17:17:15;;;;;;;3.78;3.28;;;;;;;39.61;15.49;99681.28;10303439;28;20058;-71
2023/06/18 17:22:16;;;;;;;4.20;3.22;;;;;;;39.33;15.81;99686.66;10307606;28;20469;-70
2023/06/18 17:27:19;;;;;;;5.57;2.92;;;;;;;38.72;15.99;99680.34;10290643;28;20043;-71
2023/06/18 17:32:20;;;;;;;3.65;2.83;;;;;;;38.08;16.27;99681.91;10307636;28;20406;-68
2023/06/18 17:37:22;;;;;;;3.78;2.60;;;;;;;37.40;17.01;99674.34;10304967;28;20034;-71
2023/06/18 17:42:23;;;;;;;4.75;3.67;;;;;;;36.88;17.94;99685.00;10312973;28;20325;-71
2023/06/18 17:47:25;;;;;;;12.48;7.53;;;;;;;36.43;19.00;99683.66;10313259;28;20062;-69
2023/06/18 17:52:26;;;;;;;7.63;4.78;;;;;;;35.96;19.93;99676.97;10307566;28;20050;-68
2023/06/18 17:57:28;;;;;;;5.18;4.50;;;;;;;35.51;20.46;99667.09;10306204;28;20046;-72
2023/06/18 18:02:29;;;;;;;8.68;5.60;;;;;;;35.14;21.15;99673.72;10306250;28;20336;-67
2023/06/18 18:07:31;;;;;;;10.30;8.02;;;;;;;34.78;21.60;99680.31;10305090;28;20848;-70
2023/06/18 18:12:32;;;;;;;6.57;4.75;;;;;;;34.41;22.23;99680.41;10298240;28;20054;-67
2023/06/18 18:17:34;;;;;;;5.80;4.45;;;;;;;34.08;23.15;99677.78;10305943;28;20050;-70
2023/06/18 18:22:35;;;;;;;10.55;4.80;;;;;;;33.75;22.88;99673.13;10302515;28;20061;-69
2023/06/18 18:27:37;;;;;;;7.45;3.85;;;;;;;33.43;23.75;99677.63;10307444;28;20393;-71
2023/06/18 18:32:38;;;;;;;6.80;3.60;;;;;;;33.19;24.37;99679.22;10305722;28;20045;-68
2023/06/18 18:37:40;;;;;;;3.70;3.40;;;;;;;32.93;24.78;99677.50;10307761;28;20046;-67
2023/06/18 18:42:41;;;;;;;5.57;3.40;;;;;;;32.71;24.97;99687.03;10305882;28;20620;-68
2023/06/18 18:47:42;;;;;;;6.25;3.33;;;;;;;32.48;25.07;99688.50;10299678;28;20062;-67
2023/06/18 18:52:44;;;;;;;3.97;3.08;;;;;;;32.27;25.70;99694.06;10313734;28;20070;-68
2023/06/18 18:57:45;;;;;;;5.70;2.95;;;;;;;32.02;25.98;99691.13;10293719;28;20043;-68
2023/06/18 19:02:47;;;;;;;3.95;3.50;;;;;;;31.37;26.78;99698.72;10285620;28;20063;-67
2023/06/18 19:07:48;;;;;;;5.82;3.58;;;;;;;30.93;27.33;99690.50;10302527;28;20053;-67
2023/06/18 19:12:53;;;;;;;3.90;3.60;;;;;;;30.79;27.77;99682.31;10302256;28;20073;-67
2023/06/18 19:17:54;;;;;;;5.70;3.83;;;;;;;30.72;27.22;99683.97;10303396;28;20501;-67
2023/06/18 19:22:56;;;;;;;4.57;3.78;;;;;;;30.60;28.27;99692.94;10307280;28;20108;-67
2023/06/18 19:27:57;;;;;;;6.90;4.07;;;;;;;30.58;28.29;99693.25;10303508;28;20058;-68
2023/06/18 19:32:59;;;;;;;7.70;4.22;;;;;;;30.54;29.06;99697.03;10297680;28;20703;-69
2023/06/18 19:38:00;;;;;;;5.32;3.40;;;;;;;30.46;29.38;99704.19;10304604;28;20074;-67
2023/06/18 19:43:02;;;;;;;9.65;4.28;;;;;;;30.39;28.91;99706.63;10311056;28;20077;-68
2023/06/18 19:48:03;;;;;;;5.25;4.15;;;;;;;30.28;29.00;99708.06;10310953;28;20057;-68
2023/06/18 19:53:05;;;;;;;7.13;3.83;;;;;;;30.17;29.35;99713.91;10313380;28;20058;-68
2023/06/18 19:58:06;;;;;;;7.00;4.00;;;;;;;30.03;29.73;99713.22;10301646;28;20062;-69
2023/06/18 20:03:08;;;;;;;6.45;4.20;;;;;;;29.93;30.51;99732.94;10308760;28;20042;-69
2023/06/18 20:08:10;;;;;;;5.97;3.70;;;;;;;29.82;30.91;99736.00;10309773;28;20734;-64
2023/06/18 20:13:11;;;;;;;5.60;4.15;;;;;;;29.62;30.38;99739.28;10309237;28;20409;-62
2023/06/18 20:18:15;;;;;;;4.40;4.00;;;;;;;29.35;30.99;99735.56;10306527;28;20053;-62
2023/06/18 20:23:17;;;;;;;5.43;3.90;;;;;;;29.25;31.53;99749.69;10311249;28;20520;-64
2023/06/18 20:28:18;;;;;;;6.68;4.38;;;;;;;28.99;31.75;99753.06;10306930;28;20050;-63
2023/06/18 20:33:19;;;;;;;6.65;4.95;;;;;;;28.92;32.33;99754.63;10304772;28;20054;-65
2023/06/18 20:38:21;;;;;;;5.50;4.28;;;;;;;28.67;33.12;99759.59;10304180;28;20042;-64
2023/06/18 20:43:22;;;;;;;7.47;5.28;;;;;;;28.67;33.92;99754.06;10305657;28;20516;-65
2023/06/18 20:48:26;;;;;;;7.47;5.07;;;;;;;28.72;34.96;99755.91;10302225;28;20050;-66
2023/06/18 20:53:29;;;;;;;6.78;4.90;;;;;;;28.71;35.63;99751.50;10301154;28;20054;-63
2023/06/18 20:58:31;;;;;;;7.53;5.05;;;;;;;28.54;35.99;99750.22;10301455;28;20405;-64
2023/06/18 21:03:33;;;;;;;11.43;5.18;;;;;;;28.42;35.55;99753.50;10298063;28;20054;-65
2023/06/18 21:08:35;;;;;;;5.07;4.57;;;;;;;28.33;35.06;99751.75;10302908;28;20390;-64
2023/06/18 21:13:36;;;;;;;4.72;4.25;;;;;;;28.38;35.31;99746.13;10302971;28;20058;-65
2023/06/18 21:18:38;;;;;;;5.35;4.82;;;;;;;28.23;37.41;99741.75;10301800;28;20120;-66
2023/06/18 21:23:39;;;;;;;5.60;4.07;;;;;;;27.57;37.46;99744.69;10298789;28;20046;-63
2023/06/18 21:28:41;;;;;;;6.32;4.18;;;;;;;27.30;37.31;99742.66;10299369;28;20585;-72
2023/06/18 21:33:42;;;;;;;7.35;4.53;;;;;;;27.36;37.47;99741.47;10297787;28;20041;-70
2023/06/18 21:38:47;;;;;;;5.78;4.15;;;;;;;27.41;37.20;99748.81;10306510;28;20110;-71
2023/06/18 21:43:48;;;;;;;5.15;4.43;;;;;;;27.29;37.85;99739.09;10309576;28;20055;-71
2023/06/18 21:48:50;;;;;;;6.70;4.53;;;;;;;27.12;38.00;99746.28;10304921;28;20049;-69
2023/06/18 21:53:51;;;;;;;8.70;4.78;;;;;;;27.17;38.31;99748.94;10309665;28;20049;-70
2023/06/18 21:58:53;;;;;;;8.77;4.75;;;;;;;27.14;39.00;99747.59;10306079;28;20042;-72
2023/06/18 22:03:55;;;;;;;8.02;5.47;;;;;;;27.15;39.00;99753.94;10308254;28;20059;-71
2023/06/18 22:08:57;;;;;;;6.97;4.88;;;;;;;26.96;39.41;99757.56;10307373;28;20047;-68
2023/06/18 22:13:58;;;;;;;6.70;4.90;;;;;;;26.87;39.85;99753.81;10305910;28;20078;-72
2023/06/18 22:19:10;;;;;;;5.88;4.80;;;;;;;26.86;40.06;99746.69;10308228;28;20055;-72
2023/06/18 22:24:12;;;;;;;5.78;5.03;;;;;;;26.83;39.68;99750.03;10307930;28;20403;-72
2023/06/18 22:29:14;;;;;;;6.38;4.72;;;;;;;26.67;39.92;99753.00;10310427;28;20061;-71
2023/06/18 22:34:16;;;;;;;7.82;4.32;;;;;;;26.55;40.53;99762.81;10305359;28;20121;-69
2023/06/18 22:39:36;;;;;;;6.97;4.55;;;;;;;26.46;40.33;99773.66;10304890;28;20050;-70
2023/06/18 22:44:38;;;;;;;6.85;4.78;;;;;;;26.29;41.64;99766.72;10305311;28;20050;-70
2023/06/18 22:49:39;;;;;;;7.80;5.47;;;;;;;26.24;42.41;99772.28;10298184;28;21519;-70
2023/06/18 22:54:41;;;;;;;9.25;5.70;;;;;;;25.99;43.06;99773.44;10303462;28;20437;-73
2023/06/18 22:59:42;;;;;;;6.10;5.50;;;;;;;26.00;43.61;99771.50;10306564;28;20069;-70
2023/06/18 23:04:43;;;;;;;7.05;5.47;;;;;;;25.64;44.79;99780.94;10306360;28;20054;-72
2023/06/18 23:09:45;;;;;;;6.32;5.68;;;;;;;25.41;46.82;99782.50;10307668;28;20042;-74
2023/06/18 23:14:46;;;;;;;6.50;5.65;;;;;;;25.28;48.40;99780.44;10306632;28;20050;-73
2023/06/18 23:19:47;;;;;;;7.88;6.35;;;;;;;24.75;49.92;99778.31;10297261;28;20054;-72